Time;durP1;ratioP1;P1;durP2;ratioP2;P2;SDS_P1;SDS_P2;PMS_P1;PMS_P2;Temp;Humidity;BMP_temperature;BMP_pressure;BME280_temperature;BME280_humidity;BME280_pressure;Samples;Min_cycle;Max_cycle;Signal;HPM_P1;HPM_P2
2022/03/31 00:00:22;;;;;;;3.60;3.23;;;3.00;99.90;;;;;;5056467;28;38626;-74
2022/03/31 00:02:48;;;;;;;4.53;3.90;;;3.00;99.90;;;;;;5057593;28;37559;-74
2022/03/31 00:05:14;;;;;;;4.30;3.90;;;3.00;99.90;;;;;;5056966;28;39375;-75
2022/03/31 00:07:59;;;;;;;4.50;4.10;;;2.80;99.90;;;;;;5056874;28;36887;-76
2022/03/31 00:10:27;;;;;;;5.03;4.00;;;2.70;99.90;;;;;;5062584;28;37233;-74
2022/03/31 00:12:55;;;;;;;4.43;4.03;;;2.70;99.90;;;;;;5055977;28;39758;-75
2022/03/31 00:15:23;;;;;;;9.60;4.87;;;2.70;99.90;;;;;;5055967;28;39447;-75
2022/03/31 00:17:49;;;;;;;5.80;5.30;;;2.60;99.90;;;;;;5063410;27;38088;-75
2022/03/31 00:23:38;;;;;;;6.50;4.90;;;2.50;99.90;;;;;;5061741;28;49064;-75
2022/03/31 00:26:04;;;;;;;6.10;5.43;;;2.50;99.90;;;;;;5053794;28;40697;-74
2022/03/31 00:28:30;;;;;;;5.90;5.30;;;2.40;99.90;;;;;;5053848;27;38844;-76
2022/03/31 00:30:57;;;;;;;6.07;5.40;;;2.40;99.90;;;;;;5051392;28;39204;-75
2022/03/31 00:33:23;;;;;;;5.73;5.13;;;2.30;99.90;;;;;;5057189;28;39448;-74
2022/03/31 00:35:49;;;;;;;6.10;5.50;;;2.20;99.90;;;;;;5059250;28;38879;-76
2022/03/31 00:38:15;;;;;;;6.23;5.63;;;2.00;99.90;;;;;;5061855;27;37459;-76
2022/03/31 00:40:41;;;;;;;6.43;5.23;;;2.00;99.90;;;;;;5058607;28;38742;-76
2022/03/31 00:43:08;;;;;;;6.13;5.53;;;1.90;99.90;;;;;;5062420;28;38691;-76
2022/03/31 00:45:46;;;;;;;5.83;5.23;;;1.90;99.90;;;;;;5056027;28;40452;-76
2022/03/31 00:48:14;;;;;;;6.83;5.50;;;1.80;99.90;;;;;;5039180;28;40013;-77
2022/03/31 00:50:40;;;;;;;6.30;5.70;;;1.80;99.90;;;;;;5059796;28;37899;-76
2022/03/31 00:53:07;;;;;;;7.87;7.03;;;1.80;99.90;;;;;;5059891;28;38473;-77
2022/03/31 00:55:35;;;;;;;7.93;6.73;;;1.90;99.90;;;;;;5055240;28;38604;-76
2022/03/31 00:58:01;;;;;;;8.07;6.93;;;1.90;99.90;;;;;;5058900;28;39293;-76
2022/03/31 01:00:29;;;;;;;8.13;6.97;;;1.90;99.90;;;;;;5051362;28;47033;-77
2022/03/31 01:02:55;;;;;;;7.97;7.17;;;1.90;99.90;;;;;;5074679;28;39548;-77
2022/03/31 01:05:22;;;;;;;10.70;7.80;;;1.90;99.90;;;;;;5058610;28;39553;-76
2022/03/31 01:07:48;;;;;;;11.13;8.40;;;1.90;99.90;;;;;;5057230;28;38613;-75
2022/03/31 01:10:15;;;;;;;9.47;8.20;;;1.80;99.90;;;;;;5058594;28;40642;-75
2022/03/31 01:12:42;;;;;;;8.67;7.50;;;1.80;99.90;;;;;;5058565;28;40135;-75
2022/03/31 01:15:19;;;;;;;8.90;7.70;;;1.70;99.90;;;;;;5061720;28;38598;-76
2022/03/31 01:17:47;;;;;;;10.07;7.90;;;1.70;99.90;;;;;;5056519;28;38111;-77
2022/03/31 01:20:21;;;;;;;9.80;7.80;;;1.80;99.90;;;;;;5060569;28;35108;-76
2022/03/31 01:22:50;;;;;;;13.07;8.47;;;1.80;99.90;;;;;;5049645;28;40702;-76
2022/03/31 01:25:17;;;;;;;10.37;8.30;;;1.80;99.90;;;;;;5058314;28;38853;-74
2022/03/31 01:27:45;;;;;;;10.10;8.27;;;1.90;99.90;;;;;;5058927;28;39396;-76
2022/03/31 01:30:14;;;;;;;11.63;8.80;;;1.90;99.90;;;;;;5055595;28;36120;-76
2022/03/31 01:32:42;;;;;;;9.53;8.27;;;1.90;99.90;;;;;;5074636;28;39230;-77
2022/03/31 01:35:09;;;;;;;11.30;7.97;;;1.90;99.90;;;;;;5072151;28;38710;-76
2022/03/31 01:37:35;;;;;;;10.23;7.70;;;2.00;99.90;;;;;;5058343;27;37836;-77
2022/03/31 01:40:02;;;;;;;10.93;7.80;;;1.90;99.90;;;;;;5059606;28;37090;-78
2022/03/31 01:42:29;;;;;;;11.33;7.97;;;1.90;99.90;;;;;;5061561;27;47824;-77
2022/03/31 01:44:57;;;;;;;9.23;7.07;;;1.80;99.90;;;;;;5058463;28;38776;-76
2022/03/31 01:47:23;;;;;;;11.23;7.80;;;1.80;99.90;;;;;;5057011;28;37537;-74
2022/03/31 01:49:49;;;;;;;10.23;7.60;;;1.80;99.90;;;;;;5058760;28;37157;-76
2022/03/31 01:52:15;;;;;;;10.60;7.97;;;1.70;99.90;;;;;;5056555;28;39837;-76
2022/03/31 01:54:42;;;;;;;10.27;8.33;;;1.70;99.90;;;;;;5058249;28;38737;-76
2022/03/31 01:57:08;;;;;;;12.80;8.23;;;1.70;99.90;;;;;;5058102;28;38810;-76
2022/03/31 01:59:36;;;;;;;13.50;8.57;;;1.70;99.90;;;;;;5056436;28;38331;-76
2022/03/31 02:02:03;;;;;;;11.90;7.87;;;1.60;99.90;;;;;;5055505;28;40239;-77
2022/03/31 02:04:30;;;;;;;12.03;7.90;;;1.60;99.90;;;;;;5056865;28;39304;-77
2022/03/31 02:06:56;;;;;;;8.83;7.30;;;1.50;99.90;;;;;;5059461;28;38001;-76
2022/03/31 02:09:23;;;;;;;10.03;7.70;;;1.60;99.90;;;;;;5056849;28;37422;-77
2022/03/31 02:11:49;;;;;;;11.57;8.93;;;1.60;99.90;;;;;;5056228;28;38793;-76
2022/03/31 02:14:16;;;;;;;13.07;8.60;;;1.60;99.90;;;;;;5049639;28;38762;-76
2022/03/31 02:16:43;;;;;;;12.10;9.37;;;1.60;99.90;;;;;;5053267;28;38230;-76
2022/03/31 02:19:09;;;;;;;11.30;8.37;;;1.60;99.90;;;;;;5053881;28;36821;-76
2022/03/31 02:21:35;;;;;;;14.60;9.70;;;1.60;99.90;;;;;;5051867;28;39392;-77
2022/03/31 02:24:01;;;;;;;11.67;8.57;;;1.60;99.90;;;;;;5055491;28;39403;-77
2022/03/31 02:26:28;;;;;;;10.10;8.00;;;1.60;99.90;;;;;;5053441;28;48234;-76
2022/03/31 02:28:54;;;;;;;10.63;8.53;;;1.60;99.90;;;;;;5055357;28;38141;-75
2022/03/31 02:31:20;;;;;;;11.67;8.70;;;1.60;99.90;;;;;;5060743;27;37200;-74
2022/03/31 02:33:46;;;;;;;10.57;8.53;;;1.60;99.90;;;;;;5058778;27;38060;-76
2022/03/31 02:36:12;;;;;;;10.93;9.33;;;1.70;99.90;;;;;;5059377;28;38778;-76
2022/03/31 02:38:38;;;;;;;12.13;9.00;;;1.60;99.90;;;;;;5050239;28;38257;-76
2022/03/31 02:41:05;;;;;;;10.60;8.73;;;1.60;99.90;;;;;;5060115;28;40793;-76
2022/03/31 02:43:32;;;;;;;10.27;8.60;;;1.70;99.90;;;;;;5060193;28;40001;-76
2022/03/31 02:45:59;;;;;;;10.77;8.20;;;1.70;99.90;;;;;;5060986;28;38167;-76
2022/03/31 02:48:26;;;;;;;9.10;8.03;;;1.70;99.90;;;;;;5057616;28;38324;-76
2022/03/31 02:50:52;;;;;;;9.93;7.93;;;1.70;99.90;;;;;;5063181;28;38646;-76
2022/03/31 02:56:03;;;;;;;9.23;7.63;;;1.70;99.90;;;;;;5060562;28;39423;-76
2022/03/31 02:58:30;;;;;;;9.33;6.77;;;1.70;99.90;;;;;;5058011;28;37323;-77
2022/03/31 03:00:56;;;;;;;8.13;7.27;;;1.80;99.90;;;;;;5072214;28;40562;-77
2022/03/31 03:03:22;;;;;;;8.20;7.17;;;1.80;99.90;;;;;;5054156;28;38704;-76
2022/03/31 03:05:48;;;;;;;11.97;7.80;;;1.80;99.90;;;;;;5061470;28;37879;-77
2022/03/31 03:08:15;;;;;;;9.57;7.40;;;1.80;99.90;;;;;;5056737;28;36216;-77
2022/03/31 03:10:42;;;;;;;13.70;8.47;;;1.80;99.90;;;;;;5062949;28;38945;-77
2022/03/31 03:13:09;;;;;;;13.13;7.67;;;1.80;99.90;;;;;;5063417;28;39328;-77
2022/03/31 03:15:35;;;;;;;8.60;7.20;;;1.90;99.90;;;;;;5059545;28;38974;-77
2022/03/31 03:18:02;;;;;;;11.47;6.70;;;1.90;99.90;;;;;;5053558;28;39031;-76
2022/03/31 03:20:29;;;;;;;10.30;6.47;;;1.90;99.90;;;;;;5049287;28;37617;-76
2022/03/31 03:22:55;;;;;;;9.47;6.07;;;2.00;99.90;;;;;;5072148;27;39062;-76
2022/03/31 03:25:23;;;;;;;7.70;5.07;;;2.00;99.90;;;;;;5040877;28;38732;-76
2022/03/31 03:27:50;;;;;;;7.77;4.60;;;1.90;99.90;;;;;;5060049;27;37839;-76
2022/03/31 03:30:20;;;;;;;6.23;4.43;;;1.90;99.90;;;;;;5052869;28;38878;-76
2022/03/31 03:32:47;;;;;;;5.10;4.03;;;2.00;99.90;;;;;;5058541;28;38586;-77
2022/03/31 03:35:14;;;;;;;6.37;3.60;;;2.00;99.90;;;;;;5050345;28;37857;-76
2022/03/31 03:37:42;;;;;;;5.20;3.57;;;2.00;99.90;;;;;;5053760;28;36047;-76
2022/03/31 03:40:10;;;;;;;5.80;4.50;;;2.00;99.90;;;;;;5050126;28;38477;-76
2022/03/31 03:42:38;;;;;;;4.80;3.90;;;2.00;99.90;;;;;;5049642;28;39717;-75
2022/03/31 03:45:05;;;;;;;5.17;3.60;;;2.00;99.90;;;;;;5051581;28;38690;-76
2022/03/31 03:47:32;;;;;;;4.60;3.90;;;2.00;99.90;;;;;;5046861;28;38268;-76
2022/03/31 03:49:58;;;;;;;6.80;4.47;;;2.00;99.90;;;;;;5053495;28;37652;-76
2022/03/31 03:52:24;;;;;;;6.80;5.13;;;2.00;99.90;;;;;;5049823;28;38754;-75
2022/03/31 03:54:51;;;;;;;7.33;4.20;;;2.00;99.90;;;;;;5051605;28;39066;-76
2022/03/31 03:57:17;;;;;;;5.30;4.00;;;2.00;99.90;;;;;;5054280;28;37653;-75
2022/03/31 03:59:43;;;;;;;8.63;4.60;;;2.10;99.90;;;;;;5054446;28;39096;-77
2022/03/31 04:02:09;;;;;;;7.20;4.50;;;2.10;99.90;;;;;;5061177;27;39278;-76
2022/03/31 04:04:35;;;;;;;9.67;4.80;;;2.10;99.90;;;;;;5053737;27;38569;-76
2022/03/31 04:07:02;;;;;;;12.77;6.03;;;2.10;99.90;;;;;;5052314;27;37857;-75
2022/03/31 04:09:28;;;;;;;7.73;5.80;;;2.10;99.90;;;;;;5053451;28;38925;-76
2022/03/31 04:11:54;;;;;;;10.03;5.80;;;2.00;99.90;;;;;;5050491;28;37839;-76
2022/03/31 04:14:24;;;;;;;9.60;5.33;;;2.00;99.90;;;;;;5058538;28;39041;-76
2022/03/31 04:16:50;;;;;;;8.67;6.23;;;2.00;99.90;;;;;;5060098;28;37050;-76
2022/03/31 04:19:16;;;;;;;8.47;6.37;;;2.00;99.90;;;;;;5058891;28;40730;-77
2022/03/31 04:21:42;;;;;;;10.67;7.20;;;2.00;99.90;;;;;;5061272;28;39372;-76
2022/03/31 04:24:08;;;;;;;14.20;7.67;;;2.00;99.90;;;;;;5052989;28;39396;-76
2022/03/31 04:26:35;;;;;;;10.30;7.63;;;2.00;99.90;;;;;;5055262;28;37957;-75
2022/03/31 04:29:01;;;;;;;13.10;7.37;;;2.00;99.90;;;;;;5058805;28;40096;-77
2022/03/31 04:31:29;;;;;;;11.80;8.07;;;2.00;99.90;;;;;;5055235;28;38979;-76
2022/03/31 04:33:55;;;;;;;12.70;8.00;;;2.00;99.90;;;;;;5053862;28;38830;-76
2022/03/31 04:36:22;;;;;;;12.23;7.27;;;2.00;99.90;;;;;;5053763;28;37255;-75
2022/03/31 04:38:48;;;;;;;11.80;8.03;;;2.00;99.90;;;;;;5057032;28;39625;-75
2022/03/31 04:41:14;;;;;;;10.70;8.00;;;2.00;99.90;;;;;;5057169;28;38405;-76
2022/03/31 04:43:40;;;;;;;13.80;8.60;;;2.00;99.90;;;;;;5061209;28;38526;-75
2022/03/31 04:46:07;;;;;;;15.07;9.20;;;2.00;99.90;;;;;;5060006;28;37856;-75
2022/03/31 04:48:34;;;;;;;14.17;9.03;;;2.00;99.90;;;;;;5059478;28;38553;-75
2022/03/31 04:51:00;;;;;;;13.50;8.90;;;2.10;99.90;;;;;;5060308;28;38453;-75
2022/03/31 04:53:26;;;;;;;15.83;10.27;;;2.10;99.90;;;;;;5059630;28;47435;-75
2022/03/31 04:55:53;;;;;;;15.20;9.90;;;2.10;99.90;;;;;;5061530;28;35914;-76
2022/03/31 04:58:19;;;;;;;18.93;10.53;;;2.10;99.90;;;;;;5053944;28;40515;-75
2022/03/31 05:00:45;;;;;;;12.23;10.30;;;2.20;99.90;;;;;;5052909;28;38683;-75
2022/03/31 05:03:11;;;;;;;16.20;9.90;;;2.20;99.90;;;;;;5060017;28;38240;-76
2022/03/31 05:05:37;;;;;;;12.73;9.07;;;2.20;99.90;;;;;;5061747;28;37402;-76
2022/03/31 05:08:03;;;;;;;12.70;9.00;;;2.20;99.90;;;;;;5054801;28;40534;-75
2022/03/31 05:10:29;;;;;;;14.63;9.40;;;2.20;99.90;;;;;;5058784;28;39461;-75
2022/03/31 05:12:56;;;;;;;15.23;8.90;;;2.20;99.90;;;;;;5056066;28;38546;-75
2022/03/31 05:15:22;;;;;;;9.50;7.97;;;2.30;99.90;;;;;;5059635;28;37094;-76
2022/03/31 05:17:48;;;;;;;11.20;6.90;;;2.30;99.90;;;;;;5063753;28;38888;-75
2022/03/31 05:20:14;;;;;;;7.80;5.90;;;2.30;99.90;;;;;;5062940;28;38645;-75
2022/03/31 05:22:41;;;;;;;9.80;5.80;;;2.20;99.90;;;;;;5057757;28;38176;-75
2022/03/31 05:25:09;;;;;;;8.40;6.17;;;2.20;99.90;;;;;;5059603;28;37174;-76
2022/03/31 05:27:45;;;;;;;11.27;6.50;;;2.30;99.90;;;;;;5059118;28;39470;-75
2022/03/31 05:30:13;;;;;;;11.37;6.20;;;2.20;99.90;;;;;;5073360;28;39802;-78
2022/03/31 05:32:39;;;;;;;8.10;6.50;;;2.30;99.90;;;;;;5061854;28;39097;-75
2022/03/31 05:35:07;;;;;;;10.30;5.87;;;2.40;99.90;;;;;;5058537;28;37346;-75
2022/03/31 05:37:34;;;;;;;10.87;5.47;;;2.30;99.90;;;;;;5059927;28;39368;-77
2022/03/31 05:40:05;;;;;;;7.40;5.23;;;2.30;99.90;;;;;;5056097;28;39162;-76
2022/03/31 05:42:32;;;;;;;7.67;4.97;;;2.40;99.90;;;;;;5059387;28;48104;-76
2022/03/31 05:45:00;;;;;;;9.60;5.47;;;2.30;99.90;;;;;;5061867;28;37401;-76
2022/03/31 05:47:26;;;;;;;8.37;5.10;;;2.30;99.90;;;;;;5054580;28;37777;-78
2022/03/31 05:49:53;;;;;;;8.70;5.43;;;2.40;99.90;;;;;;5056611;28;40133;-78
2022/03/31 05:52:20;;;;;;;10.40;5.83;;;2.40;99.90;;;;;;5062423;28;37917;-78
2022/03/31 05:54:47;;;;;;;12.53;5.60;;;2.40;99.90;;;;;;5060141;28;36842;-78
2022/03/31 05:57:14;;;;;;;12.40;5.27;;;2.40;99.90;;;;;;5059353;28;39167;-78
2022/03/31 05:59:41;;;;;;;11.10;4.03;;;2.40;99.90;;;;;;5062664;28;36627;-78
2022/03/31 06:02:08;;;;;;;10.00;3.50;;;2.30;99.90;;;;;;5062404;28;37901;-78
2022/03/31 06:04:35;;;;;;;8.30;3.40;;;2.30;99.90;;;;;;5055529;28;36496;-78
2022/03/31 06:07:01;;;;;;;5.70;3.20;;;2.30;99.90;;;;;;5061958;28;39333;-78
2022/03/31 06:09:29;;;;;;;7.37;3.23;;;2.30;99.90;;;;;;5061319;28;47110;-77
2022/03/31 06:11:55;;;;;;;10.57;3.90;;;2.30;99.90;;;;;;5065690;28;38205;-78
2022/03/31 06:14:21;;;;;;;7.20;3.73;;;2.30;99.90;;;;;;5064883;28;35154;-78
2022/03/31 06:16:49;;;;;;;11.17;3.30;;;2.30;99.90;;;;;;5060938;28;38706;-77
2022/03/31 06:19:15;;;;;;;5.47;3.40;;;2.30;99.90;;;;;;5061726;28;40167;-77
2022/03/31 06:21:42;;;;;;;11.33;3.27;;;2.30;99.90;;;;;;5060564;28;37863;-78
2022/03/31 06:24:09;;;;;;;9.07;3.40;;;2.30;99.90;;;;;;5062841;28;37729;-76
2022/03/31 06:26:35;;;;;;;10.67;3.53;;;2.30;99.90;;;;;;5066063;28;40086;-76
2022/03/31 06:29:04;;;;;;;8.87;3.70;;;2.30;99.90;;;;;;5067364;28;38054;-77
2022/03/31 06:31:30;;;;;;;8.87;3.37;;;2.30;99.90;;;;;;5062724;28;48422;-77
2022/03/31 06:33:56;;;;;;;6.67;3.70;;;2.40;99.90;;;;;;5064833;28;37796;-77
2022/03/31 06:36:23;;;;;;;10.63;3.60;;;2.40;99.90;;;;;;5063372;27;39494;-78
2022/03/31 06:38:49;;;;;;;11.77;4.50;;;2.40;99.90;;;;;;5059669;28;38850;-77
2022/03/31 06:41:17;;;;;;;12.27;5.53;;;2.50;99.90;;;;;;5064030;28;38300;-77
2022/03/31 06:43:45;;;;;;;10.87;5.83;;;2.50;99.90;;;;;;5061644;28;38301;-76
2022/03/31 06:46:13;;;;;;;11.43;6.63;;;2.70;99.90;;;;;;5063722;27;39574;-76
2022/03/31 06:48:41;;;;;;;14.27;8.73;;;2.70;99.90;;;;;;5061750;28;37300;-77
2022/03/31 06:51:09;;;;;;;17.60;9.73;;;2.80;99.90;;;;;;5065536;28;37981;-80
2022/03/31 06:53:39;;;;;;;15.63;9.93;;;2.80;99.90;;;;;;5067964;28;38022;-80
2022/03/31 06:56:07;;;;;;;18.07;10.63;;;2.90;99.90;;;;;;5061961;28;38199;-78
2022/03/31 06:58:34;;;;;;;17.07;10.10;;;3.00;99.90;;;;;;5066823;28;38317;-78
2022/03/31 07:01:00;;;;;;;13.67;8.93;;;3.10;99.90;;;;;;5064523;28;36862;-78
2022/03/31 07:03:28;;;;;;;15.00;9.90;;;3.30;99.90;;;;;;5064886;28;37536;-77
2022/03/31 07:05:55;;;;;;;14.07;9.40;;;3.40;99.90;;;;;;5062491;28;38222;-78
2022/03/31 07:08:21;;;;;;;17.13;9.13;;;3.50;99.90;;;;;;5059552;27;38376;-78
2022/03/31 07:10:48;;;;;;;11.50;8.40;;;3.50;99.90;;;;;;5066267;28;38336;-78
2022/03/31 07:13:14;;;;;;;10.30;8.33;;;3.60;99.90;;;;;;5061022;28;38391;-78
2022/03/31 07:15:40;;;;;;;11.23;7.63;;;3.60;99.90;;;;;;5066210;28;38902;-78
2022/03/31 07:18:07;;;;;;;13.27;8.10;;;3.70;99.90;;;;;;5065690;28;40077;-77
2022/03/31 07:20:34;;;;;;;13.07;7.80;;;3.80;99.90;;;;;;5049595;28;38132;-77
2022/03/31 07:23:01;;;;;;;14.97;6.10;;;3.80;99.90;;;;;;5057162;27;36784;-77
2022/03/31 07:25:28;;;;;;;12.17;6.17;;;3.80;99.90;;;;;;5068260;28;48178;-77
2022/03/31 07:27:57;;;;;;;10.93;5.60;;;3.80;99.90;;;;;;5064333;27;37396;-77
2022/03/31 07:30:24;;;;;;;10.77;5.23;;;3.80;99.90;;;;;;5050420;28;37277;-77
2022/03/31 07:32:58;;;;;;;8.10;4.83;;;3.90;99.90;;;;;;5068103;28;37117;-78
2022/03/31 07:35:27;;;;;;;5.50;4.00;;;3.90;99.90;;;;;;5057099;28;38048;-79
2022/03/31 07:37:55;;;;;;;8.70;3.87;;;4.00;99.90;;;;;;5061686;28;38588;-78
2022/03/31 07:40:22;;;;;;;8.23;4.57;;;4.00;99.90;;;;;;5066160;28;38842;-78
2022/03/31 07:42:49;;;;;;;7.97;4.17;;;4.20;99.90;;;;;;5066325;28;36911;-78
2022/03/31 07:45:16;;;;;;;8.00;4.53;;;4.20;99.90;;;;;;5065991;28;37655;-78
2022/03/31 07:47:43;;;;;;;5.73;3.50;;;4.30;99.90;;;;;;5067487;28;39271;-78
2022/03/31 07:50:10;;;;;;;9.90;4.33;;;4.50;99.90;;;;;;5059289;28;38084;-78
2022/03/31 07:52:37;;;;;;;4.00;2.77;;;4.70;99.90;;;;;;5069233;28;36926;-78
2022/03/31 07:55:04;;;;;;;4.60;3.00;;;5.00;99.90;;;;;;5066214;28;38628;-78
2022/03/31 07:57:31;;;;;;;8.33;3.37;;;5.00;99.90;;;;;;5060436;28;38502;-78
2022/03/31 07:59:57;;;;;;;5.63;2.97;;;5.10;99.90;;;;;;5080280;28;38734;-79
2022/03/31 08:02:27;;;;;;;9.97;2.87;;;5.30;99.90;;;;;;5065756;27;36298;-79
2022/03/31 08:04:53;;;;;;;7.00;3.20;;;5.30;99.90;;;;;;5066608;28;38875;-81
2022/03/31 08:07:23;;;;;;;9.33;3.07;;;5.30;99.90;;;;;;5059605;27;38563;-79
2022/03/31 08:09:49;;;;;;;4.90;2.47;;;5.20;99.90;;;;;;5066613;28;37764;-81
2022/03/31 08:12:15;;;;;;;4.47;3.00;;;5.20;99.90;;;;;;5059220;28;37617;-78
2022/03/31 08:14:41;;;;;;;7.27;3.23;;;5.20;99.90;;;;;;5067939;28;38623;-78
2022/03/31 08:17:08;;;;;;;6.60;2.77;;;5.40;99.90;;;;;;5065682;28;39087;-78
2022/03/31 08:19:37;;;;;;;4.23;2.63;;;5.50;99.90;;;;;;5063476;28;37117;-79
2022/03/31 08:22:04;;;;;;;8.27;3.27;;;5.40;99.90;;;;;;5050775;28;37147;-79
2022/03/31 08:24:30;;;;;;;6.50;2.63;;;5.30;99.90;;;;;;5077682;28;38956;-80
2022/03/31 08:26:58;;;;;;;6.57;3.00;;;5.30;99.90;;;;;;5061765;28;38274;-80
2022/03/31 08:29:27;;;;;;;5.13;2.83;;;5.10;99.90;;;;;;5062436;28;37401;-79
2022/03/31 08:31:55;;;;;;;4.23;3.10;;;5.00;99.90;;;;;;5065080;28;36538;-79
2022/03/31 08:34:24;;;;;;;5.43;3.20;;;4.90;99.90;;;;;;5066476;28;39843;-79
2022/03/31 08:36:51;;;;;;;8.57;3.50;;;4.90;99.90;;;;;;5063932;28;38948;-79
2022/03/31 08:39:17;;;;;;;5.87;3.43;;;4.70;99.90;;;;;;5055470;28;37293;-79
2022/03/31 08:41:44;;;;;;;5.77;3.30;;;4.90;99.90;;;;;;5064080;28;36634;-79
2022/03/31 08:44:15;;;;;;;5.60;3.23;;;5.00;99.90;;;;;;5065260;28;37923;-78
2022/03/31 08:46:42;;;;;;;8.27;2.83;;;5.10;99.90;;;;;;5063762;28;37095;-80
2022/03/31 08:49:12;;;;;;;5.40;3.63;;;5.40;99.90;;;;;;5065860;28;38397;-80
2022/03/31 08:51:43;;;;;;;5.97;3.20;;;5.70;99.90;;;;;;5066082;28;37379;-81
2022/03/31 08:54:09;;;;;;;4.83;2.73;;;6.00;99.90;;;;;;5066557;27;38882;-80
2022/03/31 08:56:37;;;;;;;4.57;2.30;;;6.40;99.90;;;;;;5066580;28;38530;-81
2022/03/31 08:59:04;;;;;;;4.57;2.70;;;6.60;99.90;;;;;;5064302;28;38296;-79
2022/03/31 09:01:32;;;;;;;3.70;2.53;;;6.80;99.90;;;;;;5063284;28;35833;-81
2022/03/31 09:03:58;;;;;;;4.43;2.77;;;6.80;99.90;;;;;;5063807;28;38651;-80
2022/03/31 09:06:28;;;;;;;5.57;2.23;;;6.90;99.90;;;;;;5065995;28;37492;-82
2022/03/31 09:08:56;;;;;;;3.80;1.90;;;7.00;99.90;;;;;;5063422;28;38120;-82
2022/03/31 09:11:30;;;;;;;1.90;1.80;;;6.70;99.90;;;;;;5066094;28;37314;-81
2022/03/31 09:13:58;;;;;;;2.40;2.20;;;6.50;99.90;;;;;;5067433;28;39862;-81
2022/03/31 09:16:35;;;;;;;3.10;1.60;;;6.40;99.90;;;;;;5046244;28;37392;-81
2022/03/31 09:19:10;;;;;;;4.70;2.10;;;6.30;99.90;;;;;;5067944;27;38915;-82
2022/03/31 09:21:58;;;;;;;3.83;2.23;;;6.40;99.90;;;;;;5065321;28;47652;-79
2022/03/31 09:24:27;;;;;;;2.37;2.00;;;6.40;99.90;;;;;;5067318;28;39828;-81
2022/03/31 09:26:56;;;;;;;3.53;1.97;;;6.30;99.90;;;;;;5066490;28;38656;-81
2022/03/31 09:29:24;;;;;;;3.03;1.83;;;6.30;99.90;;;;;;5073324;28;37928;-81
2022/03/31 09:31:54;;;;;;;3.53;1.87;;;6.20;99.90;;;;;;5060327;28;36996;-79
2022/03/31 09:34:21;;;;;;;4.37;2.23;;;6.20;99.90;;;;;;5067149;28;39775;-81
2022/03/31 09:36:52;;;;;;;2.30;2.10;;;6.20;99.90;;;;;;5066549;28;39067;-81
2022/03/31 09:39:20;;;;;;;5.60;2.17;;;6.30;99.90;;;;;;5066064;28;37347;-80
2022/03/31 09:41:50;;;;;;;3.43;2.13;;;6.30;99.90;;;;;;5068082;28;37623;-81
2022/03/31 09:44:19;;;;;;;4.00;2.30;;;6.20;99.90;;;;;;5065646;28;38676;-81
2022/03/31 09:46:46;;;;;;;3.10;2.23;;;6.00;99.90;;;;;;5068524;28;39330;-81
2022/03/31 09:49:27;;;;;;;2.93;2.60;;;5.90;99.90;;;;;;5067428;28;39059;-81
2022/03/31 09:51:59;;;;;;;3.73;1.87;;;5.90;99.90;;;;;;5066215;28;37028;-81
2022/03/31 09:54:27;;;;;;;3.22;1.70;;;6.00;99.90;;;;;;5065249;28;38183;-81
2022/03/31 09:56:56;;;;;;;2.50;1.67;;;5.90;99.90;;;;;;5065597;28;38429;-81
2022/03/31 09:59:28;;;;;;;1.93;1.83;;;5.80;99.90;;;;;;5069896;28;38074;-80
2022/03/31 10:01:55;;;;;;;1.70;1.60;;;5.80;99.90;;;;;;5068867;28;36705;-80
2022/03/31 10:04:22;;;;;;;2.00;1.80;;;6.00;99.90;;;;;;5066363;28;38730;-81
2022/03/31 10:06:49;;;;;;;1.87;1.77;;;6.10;99.90;;;;;;5070029;28;38468;-80
2022/03/31 10:09:16;;;;;;;2.80;1.80;;;6.10;99.90;;;;;;5068022;28;36848;-80
2022/03/31 10:11:45;;;;;;;2.30;1.90;;;6.00;99.90;;;;;;5065733;28;35845;-80
2022/03/31 10:14:30;;;;;;;3.73;1.90;;;5.90;99.90;;;;;;5067537;27;39120;-80
2022/03/31 10:16:59;;;;;;;2.33;2.13;;;5.70;99.90;;;;;;5071081;28;37812;-77
2022/03/31 10:19:39;;;;;;;2.73;2.53;;;5.60;99.90;;;;;;5069899;28;37982;-81
2022/03/31 10:22:09;;;;;;;2.23;2.03;;;5.60;99.90;;;;;;5068793;27;38226;-78
2022/03/31 10:24:41;;;;;;;2.83;2.13;;;5.50;99.90;;;;;;5065890;28;40679;-80
2022/03/31 10:27:34;;;;;;;3.45;2.25;;;5.60;99.90;;;;;;5067043;27;37680;-80
2022/03/31 10:30:14;;;;;;;3.22;2.40;;;5.80;99.90;;;;;;5075890;28;36930;-77
2022/03/31 10:32:53;;;;;;;1.90;1.80;;;6.00;99.90;;;;;;5067237;28;50550;-78
2022/03/31 10:35:26;;;;;;;2.53;2.10;;;6.20;99.90;;;;;;5068947;28;40661;-80
2022/03/31 10:37:53;;;;;;;3.28;2.22;;;6.40;99.90;;;;;;5069617;27;39253;-80
2022/03/31 10:40:42;;;;;;;2.17;1.97;;;6.60;99.90;;;;;;5070411;28;37851;-79
2022/03/31 10:43:24;;;;;;;3.00;2.10;;;6.70;99.90;;;;;;5067984;28;36476;-79
2022/03/31 10:45:54;;;;;;;1.83;1.73;;;6.70;99.90;;;;;;5067361;28;39534;-80
2022/03/31 10:48:31;;;;;;;2.33;2.13;;;6.70;99.90;;;;;;5069323;28;39109;-81
2022/03/31 10:51:00;;;;;;;2.60;2.03;;;6.70;99.90;;;;;;5068453;28;37085;-80
2022/03/31 10:53:31;;;;;;;3.00;1.97;;;6.70;99.90;;;;;;5080588;27;37614;-80
2022/03/31 10:55:59;;;;;;;1.80;1.70;;;6.70;99.90;;;;;;5070325;28;40898;-80
2022/03/31 10:58:28;;;;;;;2.50;2.00;;;6.80;99.90;;;;;;5068285;28;38857;-80
2022/03/31 11:01:01;;;;;;;3.10;1.70;;;7.00;99.90;;;;;;5084689;28;38441;-79
2022/03/31 11:03:27;;;;;;;7.17;3.27;;;6.90;99.90;;;;;;5066323;28;46742;-80
2022/03/31 11:05:56;;;;;;;2.77;1.77;;;6.80;99.90;;;;;;5069939;28;38670;-80
2022/03/31 11:08:22;;;;;;;2.07;1.60;;;6.80;99.90;;;;;;5064694;28;38516;-79
2022/03/31 11:10:52;;;;;;;2.47;2.17;;;7.00;99.90;;;;;;5071677;28;38945;-79
2022/03/31 11:13:29;;;;;;;2.67;1.70;;;7.10;99.90;;;;;;5061281;28;37369;-79
2022/03/31 11:15:56;;;;;;;2.37;1.50;;;7.20;99.90;;;;;;5070436;28;38936;-79
2022/03/31 11:18:23;;;;;;;1.83;1.40;;;7.20;99.90;;;;;;5067347;28;38358;-79
2022/03/31 11:21:00;;;;;;;2.10;1.90;;;7.20;99.90;;;;;;5070416;28;37984;-77
2022/03/31 11:23:30;;;;;;;1.90;1.80;;;7.40;99.90;;;;;;5066915;27;47499;-79
2022/03/31 11:25:57;;;;;;;2.03;1.83;;;7.40;99.90;;;;;;5069653;28;40573;-80
2022/03/31 11:28:28;;;;;;;1.90;1.60;;;7.30;99.90;;;;;;5069140;27;38560;-79
2022/03/31 11:30:55;;;;;;;1.63;1.47;;;7.30;99.90;;;;;;5070078;28;37801;-80
2022/03/31 11:33:22;;;;;;;1.60;1.50;;;7.50;99.90;;;;;;5069117;27;37874;-80
2022/03/31 11:35:53;;;;;;;1.43;1.30;;;7.50;99.90;;;;;;5069201;28;38909;-80
2022/03/31 11:38:19;;;;;;;2.33;1.67;;;7.50;99.90;;;;;;5067095;28;39237;-79
2022/03/31 11:40:48;;;;;;;2.50;1.33;;;7.50;99.90;;;;;;5067421;28;38684;-79
2022/03/31 11:43:16;;;;;;;1.93;1.83;;;7.60;99.90;;;;;;5067364;28;36610;-79
2022/03/31 11:45:47;;;;;;;1.80;1.70;;;7.60;99.90;;;;;;5069813;28;39751;-80
2022/03/31 11:48:19;;;;;;;1.77;1.57;;;7.50;99.90;;;;;;5067703;28;38721;-79
2022/03/31 11:50:59;;;;;;;1.60;1.40;;;7.40;99.90;;;;;;5069281;28;39033;-79
2022/03/31 11:53:28;;;;;;;1.43;1.33;;;7.30;99.90;;;;;;5065644;28;37378;-80
2022/03/31 11:56:06;;;;;;;2.00;1.70;;;7.40;99.90;;;;;;5061229;28;37211;-77
2022/03/31 11:58:45;;;;;;;1.80;1.57;;;7.60;99.90;;;;;;5067856;28;48370;-79
2022/03/31 12:01:11;;;;;;;2.13;1.80;;;7.60;99.90;;;;;;5068334;28;38663;-79
2022/03/31 12:03:38;;;;;;;2.63;1.80;;;7.70;99.90;;;;;;5084384;28;37956;-79
2022/03/31 12:06:06;;;;;;;2.20;1.80;;;7.80;99.90;;;;;;5070194;28;38921;-77
2022/03/31 12:08:33;;;;;;;2.10;1.90;;;7.80;99.90;;;;;;5069768;28;40208;-77
2022/03/31 12:11:00;;;;;;;2.33;2.10;;;7.80;99.90;;;;;;5068958;28;38127;-77
2022/03/31 12:13:28;;;;;;;2.13;1.80;;;7.70;99.90;;;;;;5067499;27;47670;-78
2022/03/31 12:16:08;;;;;;;2.30;1.90;;;7.50;99.90;;;;;;5067235;28;39617;-77
2022/03/31 12:18:36;;;;;;;2.50;2.00;;;7.50;99.90;;;;;;5057222;28;49114;-80
2022/03/31 12:21:04;;;;;;;4.53;2.10;;;7.20;99.90;;;;;;5067140;28;38465;-78
2022/03/31 12:23:31;;;;;;;2.20;1.83;;;7.00;99.90;;;;;;5068254;28;37191;-79
2022/03/31 12:25:57;;;;;;;3.70;2.30;;;6.90;99.90;;;;;;5064240;28;40716;-79
2022/03/31 12:28:24;;;;;;;2.00;1.80;;;6.80;99.90;;;;;;5063119;28;40462;-79
2022/03/31 12:30:59;;;;;;;2.20;2.00;;;6.60;99.90;;;;;;5066102;28;38178;-79
2022/03/31 12:33:28;;;;;;;2.20;2.03;;;6.60;99.90;;;;;;5062355;28;37802;-78
2022/03/31 12:36:00;;;;;;;2.00;1.77;;;6.60;99.90;;;;;;5065415;28;40681;-79
2022/03/31 12:38:49;;;;;;;5.22;1.90;;;6.60;99.90;;;;;;5065765;28;38507;-79
2022/03/31 12:41:36;;;;;;;2.03;1.63;;;6.80;99.90;;;;;;5063506;27;38260;-80
2022/03/31 12:44:15;;;;;;;2.10;1.90;;;6.80;99.90;;;;;;5066418;28;37124;-78
2022/03/31 12:46:52;;;;;;;2.00;1.80;;;7.10;99.90;;;;;;5065515;28;38736;-79
2022/03/31 12:49:20;;;;;;;6.07;2.27;;;7.10;99.90;;;;;;5062366;28;39226;-79
2022/03/31 12:51:57;;;;;;;2.00;1.70;;;7.10;99.90;;;;;;5065976;27;38623;-79
2022/03/31 12:54:35;;;;;;;3.30;2.20;;;7.20;99.90;;;;;;5067592;28;38488;-79
2022/03/31 12:57:17;;;;;;;2.67;2.17;;;7.20;99.90;;;;;;5064137;28;39864;-79
2022/03/31 12:59:58;;;;;;;1.98;1.85;;;7.50;99.90;;;;;;5047950;28;47400;-79
2022/03/31 13:02:25;;;;;;;1.73;1.63;;;7.60;99.90;;;;;;5058813;28;38635;-79
2022/03/31 13:04:51;;;;;;;2.10;1.90;;;7.60;99.90;;;;;;5059789;28;36985;-79